Time;durP1;ratioP1;P1;durP2;ratioP2;P2;SDS_P1;SDS_P2;PMS_P1;PMS_P2;Temp;Humidity;BMP_temperature;BMP_pressure;BME280_temperature;BME280_humidity;BME280_pressure;Samples;Min_cycle;Max_cycle;Signal;HPM_P1;HPM_P2
2023/07/25 00:01:10;;;;;;;13.82;4.72;;;;;;;;;;6223046;22;20016;-65
2023/07/25 00:03:36;;;;;;;15.63;4.22;;;;;;;;;;6248535;22;20341;-63
2023/07/25 00:06:03;;;;;;;12.85;4.60;;;;;;;;;;6274697;22;20015;-64
2023/07/25 00:08:29;;;;;;;15.63;5.15;;;;;;;;;;6275855;22;20089;-63
2023/07/25 00:10:55;;;;;;;14.38;5.55;;;;;;;;;;6249179;22;20019;-63
2023/07/25 00:13:21;;;;;;;15.07;5.32;;;;;;;;;;6222236;22;20089;-64
2023/07/25 00:15:50;;;;;;;15.43;5.05;;;;;;;;;;6275013;22;20022;-64
2023/07/25 00:18:18;;;;;;;14.82;4.40;;;;;;;;;;6248387;22;20016;-64
2023/07/25 00:20:44;;;;;;;15.63;5.07;;;;;;;;;;6249021;22;20452;-63
2023/07/25 00:23:10;;;;;;;14.98;4.57;;;;;;;;;;6274321;22;20016;-64
2023/07/25 00:25:37;;;;;;;10.05;5.03;;;;;;;;;;6275830;22;20090;-63
2023/07/25 00:28:05;;;;;;;17.35;5.05;;;;;;;;;;6198346;22;20016;-63
2023/07/25 00:30:33;;;;;;;12.93;4.43;;;;;;;;;;6222996;22;20019;-63
2023/07/25 00:32:59;;;;;;;10.70;3.97;;;;;;;;;;6222097;22;20099;-63
2023/07/25 00:35:25;;;;;;;11.65;4.53;;;;;;;;;;6275762;22;20024;-63
2023/07/25 00:37:51;;;;;;;13.43;5.22;;;;;;;;;;6276017;22;20016;-64
2023/07/25 00:40:17;;;;;;;19.80;7.15;;;;;;;;;;6275566;22;20038;-63
2023/07/25 00:42:46;;;;;;;14.82;6.57;;;;;;;;;;6273855;22;20023;-64
2023/07/25 00:45:12;;;;;;;17.55;7.78;;;;;;;;;;6222129;22;20019;-64
2023/07/25 00:47:38;;;;;;;20.80;7.85;;;;;;;;;;6223508;22;20016;-64
2023/07/25 00:50:04;;;;;;;16.20;7.43;;;;;;;;;;6248286;22;20049;-63
2023/07/25 00:52:31;;;;;;;16.83;7.53;;;;;;;;;;6247955;22;20336;-64
2023/07/25 00:54:57;;;;;;;15.73;9.30;;;;;;;;;;6248379;22;20089;-64
2023/07/25 00:57:23;;;;;;;19.42;9.45;;;;;;;;;;6223356;22;20015;-63
2023/07/25 00:59:49;;;;;;;19.63;10.20;;;;;;;;;;6274513;22;20023;-64
2023/07/25 01:02:15;;;;;;;22.48;8.65;;;;;;;;;;6273793;22;20034;-64
2023/07/25 01:04:43;;;;;;;15.68;8.00;;;;;;;;;;6246357;22;20025;-63
2023/07/25 01:07:09;;;;;;;15.43;5.80;;;;;;;;;;6221434;22;20028;-64
2023/07/25 01:09:39;;;;;;;14.85;4.63;;;;;;;;;;6221575;22;20046;-63
2023/07/25 01:12:05;;;;;;;10.80;4.32;;;;;;;;;;6221907;22;20099;-64
2023/07/25 01:14:34;;;;;;;14.93;3.17;;;;;;;;;;6247719;22;20016;-63
2023/07/25 01:17:02;;;;;;;11.45;2.67;;;;;;;;;;6247722;22;20437;-64
2023/07/25 01:19:29;;;;;;;10.43;3.60;;;;;;;;;;6248241;22;20024;-64
2023/07/25 01:21:56;;;;;;;16.63;4.20;;;;;;;;;;6248565;22;20022;-63
2023/07/25 01:24:22;;;;;;;14.13;4.80;;;;;;;;;;6246838;22;20451;-64
2023/07/25 01:26:48;;;;;;;14.13;5.72;;;;;;;;;;6274789;22;20337;-64
2023/07/25 01:29:14;;;;;;;12.95;5.47;;;;;;;;;;6274375;22;20103;-63
2023/07/25 01:31:40;;;;;;;13.73;4.97;;;;;;;;;;6275263;22;20019;-64
2023/07/25 01:34:06;;;;;;;13.65;3.88;;;;;;;;;;6273344;22;20011;-64
2023/07/25 01:36:32;;;;;;;13.70;3.40;;;;;;;;;;6275292;22;20052;-63
2023/07/25 01:38:58;;;;;;;11.68;2.60;;;;;;;;;;6248285;22;20023;-65
2023/07/25 01:41:24;;;;;;;9.35;2.45;;;;;;;;;;6274487;22;20353;-63
2023/07/25 01:43:50;;;;;;;7.25;2.78;;;;;;;;;;6273741;22;20317;-63
2023/07/25 01:46:16;;;;;;;9.63;3.30;;;;;;;;;;6274541;22;20038;-63
2023/07/25 01:48:45;;;;;;;8.43;2.90;;;;;;;;;;6247752;22;20391;-63
2023/07/25 01:51:11;;;;;;;9.38;3.22;;;;;;;;;;6247118;22;20055;-63
2023/07/25 01:53:37;;;;;;;6.97;3.00;;;;;;;;;;6274331;22;20020;-63
2023/07/25 01:56:03;;;;;;;7.43;3.10;;;;;;;;;;6247420;22;20448;-63
2023/07/25 01:58:29;;;;;;;9.45;4.35;;;;;;;;;;6222536;22;20053;-63
2023/07/25 02:01:01;;;;;;;12.35;4.85;;;;;;;;;;6273672;22;20023;-63
2023/07/25 02:03:27;;;;;;;11.25;4.53;;;;;;;;;;6222343;22;20059;-63
2023/07/25 02:05:53;;;;;;;8.90;3.65;;;;;;;;;;6274986;22;20026;-63
2023/07/25 02:08:19;;;;;;;11.40;3.17;;;;;;;;;;6274924;22;20023;-63
2023/07/25 02:10:45;;;;;;;11.55;3.30;;;;;;;;;;6274092;22;20027;-63
2023/07/25 02:13:11;;;;;;;10.45;3.08;;;;;;;;;;6274074;22;20340;-63
2023/07/25 02:15:38;;;;;;;8.75;2.95;;;;;;;;;;6275045;22;20145;-63
2023/07/25 02:18:04;;;;;;;12.40;2.67;;;;;;;;;;6274427;22;20070;-64
2023/07/25 02:20:31;;;;;;;8.75;2.85;;;;;;;;;;6221529;22;20066;-63
2023/07/25 02:22:57;;;;;;;9.30;2.70;;;;;;;;;;6274974;22;20027;-63
2023/07/25 02:25:26;;;;;;;11.15;3.38;;;;;;;;;;6246900;22;20058;-63
2023/07/25 02:27:52;;;;;;;10.32;4.22;;;;;;;;;;6222370;22;20122;-63
2023/07/25 02:30:18;;;;;;;10.55;3.70;;;;;;;;;;6246253;22;20106;-63
2023/07/25 02:32:44;;;;;;;12.13;5.15;;;;;;;;;;6221600;22;20016;-63
2023/07/25 02:35:10;;;;;;;13.07;4.80;;;;;;;;;;6247273;22;20012;-63
2023/07/25 02:37:36;;;;;;;14.50;5.53;;;;;;;;;;6248398;22;20019;-62
2023/07/25 02:40:02;;;;;;;13.93;5.97;;;;;;;;;;6276508;22;20012;-63
2023/07/25 02:42:28;;;;;;;15.68;7.60;;;;;;;;;;6276072;22;20107;-63
2023/07/25 02:44:57;;;;;;;13.13;7.10;;;;;;;;;;6277044;22;20015;-63
2023/07/25 02:47:23;;;;;;;16.70;9.60;;;;;;;;;;6249682;22;20020;-63
2023/07/25 02:49:49;;;;;;;14.60;8.20;;;;;;;;;;6276330;22;20065;-63
2023/07/25 02:52:15;;;;;;;15.63;6.53;;;;;;;;;;6275429;22;20058;-63
2023/07/25 02:54:41;;;;;;;13.98;6.22;;;;;;;;;;6249435;22;20015;-63
2023/07/25 02:57:07;;;;;;;17.77;6.00;;;;;;;;;;6276089;22;20022;-63
2023/07/25 02:59:33;;;;;;;9.00;4.15;;;;;;;;;;6276292;22;20023;-63
2023/07/25 03:02:00;;;;;;;14.35;4.63;;;;;;;;;;6274754;22;20019;-63
2023/07/25 03:04:26;;;;;;;11.23;3.50;;;;;;;;;;6275637;22;20428;-63
2023/07/25 03:06:52;;;;;;;11.43;2.70;;;;;;;;;;6249598;22;20015;-63
2023/07/25 03:09:18;;;;;;;7.13;2.40;;;;;;;;;;6276353;22;20020;-63
2023/07/25 03:11:44;;;;;;;5.10;2.33;;;;;;;;;;6248412;22;20098;-63
2023/07/25 03:14:10;;;;;;;7.95;2.17;;;;;;;;;;6222532;22;20024;-63
2023/07/25 03:16:36;;;;;;;6.20;2.40;;;;;;;;;;6249411;22;20024;-63
2023/07/25 03:19:02;;;;;;;8.40;2.47;;;;;;;;;;6276412;22;20023;-63
2023/07/25 03:21:28;;;;;;;11.38;2.80;;;;;;;;;;6276423;22;20065;-63
2023/07/25 03:23:54;;;;;;;7.05;2.20;;;;;;;;;;6249153;22;20055;-63
2023/07/25 03:26:20;;;;;;;13.68;2.53;;;;;;;;;;6275674;22;20019;-63
2023/07/25 03:28:47;;;;;;;9.68;2.20;;;;;;;;;;6276742;22;20020;-63
2023/07/25 03:31:13;;;;;;;9.70;2.38;;;;;;;;;;6274918;22;20015;-63
2023/07/25 03:33:39;;;;;;;9.10;2.30;;;;;;;;;;6248153;22;20016;-63
2023/07/25 03:36:07;;;;;;;5.72;1.85;;;;;;;;;;6248869;22;20022;-63
2023/07/25 03:38:33;;;;;;;10.63;2.38;;;;;;;;;;6276550;22;20051;-63
2023/07/25 03:40:59;;;;;;;15.10;2.58;;;;;;;;;;6246838;22;20027;-64
2023/07/25 03:43:25;;;;;;;7.43;2.20;;;;;;;;;;6275895;22;20012;-63
2023/07/25 03:45:51;;;;;;;6.38;2.40;;;;;;;;;;6276179;22;20061;-63
2023/07/25 03:48:17;;;;;;;10.27;2.78;;;;;;;;;;6275288;22;20020;-62
2023/07/25 03:50:43;;;;;;;13.50;4.10;;;;;;;;;;6276298;22;20098;-63
2023/07/25 03:53:09;;;;;;;7.90;2.15;;;;;;;;;;6274959;22;20055;-64
2023/07/25 03:55:35;;;;;;;7.57;2.30;;;;;;;;;;6276361;22;20011;-63
2023/07/25 03:58:01;;;;;;;8.70;2.33;;;;;;;;;;6248807;22;20020;-62
2023/07/25 04:00:28;;;;;;;7.80;2.67;;;;;;;;;;6275603;22;20027;-63
2023/07/25 04:02:54;;;;;;;8.18;2.20;;;;;;;;;;6275176;22;20015;-63
2023/07/25 04:05:22;;;;;;;11.23;2.33;;;;;;;;;;6248564;22;20070;-63
2023/07/25 04:07:48;;;;;;;7.90;2.58;;;;;;;;;;6247869;22;20112;-63
2023/07/25 04:10:14;;;;;;;13.57;2.70;;;;;;;;;;6275791;22;20037;-63
2023/07/25 04:12:40;;;;;;;9.48;2.30;;;;;;;;;;6223332;22;20015;-63
2023/07/25 04:15:10;;;;;;;8.25;2.67;;;;;;;;;;6275718;22;20383;-63
2023/07/25 04:17:36;;;;;;;7.78;2.30;;;;;;;;;;6275644;22;20026;-63
2023/07/25 04:20:02;;;;;;;7.70;2.53;;;;;;;;;;6275490;22;20023;-63
2023/07/25 04:22:28;;;;;;;9.00;2.55;;;;;;;;;;6248750;22;20065;-63
2023/07/25 04:24:54;;;;;;;12.07;2.50;;;;;;;;;;6275198;22;20118;-63
2023/07/25 04:27:21;;;;;;;4.85;2.00;;;;;;;;;;6274969;22;20118;-63
2023/07/25 04:29:47;;;;;;;14.45;2.35;;;;;;;;;;6275959;22;20022;-63
2023/07/25 04:32:13;;;;;;;9.43;2.42;;;;;;;;;;6275111;22;20077;-63
2023/07/25 04:34:39;;;;;;;6.90;2.25;;;;;;;;;;6275684;22;20025;-63
2023/07/25 04:37:05;;;;;;;13.30;2.58;;;;;;;;;;6221775;22;20023;-63
2023/07/25 04:39:31;;;;;;;10.55;2.40;;;;;;;;;;6248735;22;20091;-64
2023/07/25 04:41:57;;;;;;;6.65;2.35;;;;;;;;;;6274727;22;20462;-62
2023/07/25 04:44:23;;;;;;;13.15;2.40;;;;;;;;;;6223334;22;20095;-63
2023/07/25 04:46:49;;;;;;;8.15;2.10;;;;;;;;;;6247841;22;20107;-63
2023/07/25 04:49:16;;;;;;;10.48;2.00;;;;;;;;;;6248312;22;20069;-63
2023/07/25 04:51:42;;;;;;;6.75;1.85;;;;;;;;;;6221953;22;20024;-63
2023/07/25 04:54:09;;;;;;;12.18;2.20;;;;;;;;;;6275371;22;20025;-62
2023/07/25 04:56:35;;;;;;;8.05;2.03;;;;;;;;;;6248552;22;20439;-62
2023/07/25 04:59:01;;;;;;;9.63;2.13;;;;;;;;;;6248220;22;20020;-63
2023/07/25 05:01:27;;;;;;;8.88;2.00;;;;;;;;;;6248107;22;20459;-63
2023/07/25 05:03:53;;;;;;;8.48;2.17;;;;;;;;;;6274015;22;20016;-63
2023/07/25 05:06:19;;;;;;;10.63;2.08;;;;;;;;;;6274669;22;20029;-63
2023/07/25 05:08:47;;;;;;;13.98;2.78;;;;;;;;;;6275549;22;20023;-63
2023/07/25 05:11:17;;;;;;;4.93;1.75;;;;;;;;;;6247608;22;20408;-63
2023/07/25 05:13:43;;;;;;;6.07;1.85;;;;;;;;;;6248457;22;20019;-63
2023/07/25 05:16:09;;;;;;;10.77;1.95;;;;;;;;;;6275137;22;20023;-63
2023/07/25 05:18:35;;;;;;;7.22;2.35;;;;;;;;;;6274898;22;20016;-63
2023/07/25 05:21:01;;;;;;;9.52;1.83;;;;;;;;;;6247162;22;20015;-63
2023/07/25 05:23:27;;;;;;;14.30;2.50;;;;;;;;;;6222802;22;20375;-63
2023/07/25 05:25:53;;;;;;;8.20;2.22;;;;;;;;;;6248160;22;20336;-63
2023/07/25 05:28:19;;;;;;;11.10;2.58;;;;;;;;;;6274343;22;20463;-63
2023/07/25 05:30:45;;;;;;;10.40;2.83;;;;;;;;;;6273664;22;20055;-63
2023/07/25 05:33:11;;;;;;;6.43;1.98;;;;;;;;;;6221443;22;20098;-63
2023/07/25 05:35:37;;;;;;;4.18;1.55;;;;;;;;;;6274064;22;20475;-63
2023/07/25 05:38:07;;;;;;;7.63;1.95;;;;;;;;;;6275133;22;20019;-63
2023/07/25 05:40:34;;;;;;;5.90;1.63;;;;;;;;;;6221508;22;20026;-62
2023/07/25 05:43:00;;;;;;;5.82;1.80;;;;;;;;;;6274444;22;20012;-64
2023/07/25 05:45:26;;;;;;;9.77;1.65;;;;;;;;;;6247999;22;20019;-63
2023/07/25 05:47:52;;;;;;;8.02;1.80;;;;;;;;;;6221889;22;20023;-62
2023/07/25 05:50:18;;;;;;;13.45;2.15;;;;;;;;;;6273588;22;20023;-63
2023/07/25 05:52:44;;;;;;;7.55;1.40;;;;;;;;;;6274511;22;20018;-62
2023/07/25 05:55:10;;;;;;;8.27;1.70;;;;;;;;;;6247681;22;20019;-63
2023/07/25 05:57:36;;;;;;;8.55;2.00;;;;;;;;;;6275030;22;20019;-62
2023/07/25 06:00:03;;;;;;;8.10;1.40;;;;;;;;;;6272500;22;20016;-62
2023/07/25 06:02:29;;;;;;;7.60;1.70;;;;;;;;;;6246148;22;20028;-62
2023/07/25 06:04:55;;;;;;;6.65;2.28;;;;;;;;;;6273134;22;20018;-62
2023/07/25 06:07:21;;;;;;;5.65;1.10;;;;;;;;;;6246450;22;20090;-62
2023/07/25 06:09:47;;;;;;;6.05;1.27;;;;;;;;;;6275132;22;20016;-63
2023/07/25 06:12:14;;;;;;;8.48;1.52;;;;;;;;;;6221847;22;20020;-62
2023/07/25 06:14:40;;;;;;;6.22;1.10;;;;;;;;;;6248883;22;20089;-62
2023/07/25 06:17:06;;;;;;;10.82;1.40;;;;;;;;;;6249875;22;20020;-62
2023/07/25 06:19:32;;;;;;;6.30;1.27;;;;;;;;;;6276692;22;20011;-63
2023/07/25 06:21:58;;;;;;;7.10;1.33;;;;;;;;;;6276511;22;20016;-66
2023/07/25 06:24:24;;;;;;;6.65;1.23;;;;;;;;;;6248877;22;20445;-62
2023/07/25 06:26:50;;;;;;;6.28;0.90;;;;;;;;;;6224180;22;20081;-63
2023/07/25 06:29:16;;;;;;;9.10;1.05;;;;;;;;;;6223257;22;20016;-63
2023/07/25 06:31:42;;;;;;;9.43;1.15;;;;;;;;;;6276072;22;20022;-62
2023/07/25 06:34:08;;;;;;;6.72;1.50;;;;;;;;;;6275704;22;20329;-63
2023/07/25 06:36:35;;;;;;;3.95;0.90;;;;;;;;;;6275518;22;20107;-63
2023/07/25 06:39:01;;;;;;;6.25;1.20;;;;;;;;;;6249182;22;20042;-63
2023/07/25 06:41:28;;;;;;;6.03;0.80;;;;;;;;;;6224378;22;20468;-62
2023/07/25 06:44:01;;;;;;;5.13;0.93;;;;;;;;;;6250218;22;20345;-63
2023/07/25 06:46:27;;;;;;;3.08;0.80;;;;;;;;;;6275394;22;20348;-63
2023/07/25 06:48:53;;;;;;;6.72;1.90;;;;;;;;;;6249104;22;20026;-62
2023/07/25 06:51:20;;;;;;;6.97;1.13;;;;;;;;;;6276300;22;20031;-63
2023/07/25 06:53:46;;;;;;;4.65;1.00;;;;;;;;;;6275339;22;20016;-63
2023/07/25 06:56:12;;;;;;;9.52;1.33;;;;;;;;;;6275507;22;20020;-63
2023/07/25 06:58:40;;;;;;;3.33;0.50;;;;;;;;;;6276380;22;20050;-63
2023/07/25 07:01:06;;;;;;;4.97;0.70;;;;;;;;;;6221222;22;20023;-64
2023/07/25 07:03:33;;;;;;;4.28;0.60;;;;;;;;;;6275856;22;20026;-63
2023/07/25 07:05:59;;;;;;;4.10;0.60;;;;;;;;;;6274192;22;20023;-62
2023/07/25 07:08:27;;;;;;;2.50;1.00;;;;;;;;;;6276646;22;20016;-63
2023/07/25 07:10:54;;;;;;;2.10;0.47;;;;;;;;;;6223587;22;20433;-62
2023/07/25 07:13:21;;;;;;;3.35;0.60;;;;;;;;;;6224117;22;20027;-63
2023/07/25 07:15:47;;;;;;;4.93;1.10;;;;;;;;;;6223374;22;20015;-63
2023/07/25 07:18:13;;;;;;;6.72;1.08;;;;;;;;;;6222439;22;20023;-63
2023/07/25 07:20:39;;;;;;;4.25;1.00;;;;;;;;;;6276805;22;20142;-62
2023/07/25 07:23:05;;;;;;;4.63;0.77;;;18.70;99.90;;;;;;6222996;22;20016;-62
2023/07/25 07:25:31;;;;;;;3.80;0.60;;;;;;;;;;6275716;22;20022;-63
2023/07/25 07:28:00;;;;;;;3.30;0.70;;;;;;;;;;6249532;22;20027;-62
2023/07/25 07:30:26;;;;;;;3.58;0.45;;;;;;;;;;6248850;22;20114;-63
2023/07/25 07:32:52;;;;;;;4.35;1.00;;;;;;;;;;6245289;22;20077;-63
2023/07/25 07:35:18;;;;;;;4.50;0.73;;;;;;;;;;6272363;22;20102;-65
2023/07/25 07:37:44;;;;;;;5.20;0.70;;;;;;;;;;6245885;22;20066;-63
2023/07/25 07:40:10;;;;;;;5.35;0.70;;;19.00;99.90;;;;;;6245085;22;20023;-63
2023/07/25 07:42:36;;;;;;;3.10;0.63;;;;;;;;;;6223263;22;20034;-63
2023/07/25 07:45:02;;;;;;;2.05;0.60;;;19.20;99.90;;;;;;6223520;22;20051;-62
2023/07/25 07:47:28;;;;;;;2.28;0.65;;;;;;;;;;6271749;22;20384;-64
2023/07/25 07:49:54;;;;;;;5.75;1.50;;;;;;;;;;6272801;22;20016;-62
2023/07/25 07:56:21;;;;;;;1.75;0.50;;;19.00;99.90;;;;;;6275381;22;20046;-63
2023/07/25 07:58:47;;;;;;;4.18;1.00;;;;;;;;;;6246531;22;20015;-64
2023/07/25 08:01:18;;;;;;;2.58;0.60;;;19.10;99.90;;;;;;6245429;22;20070;-63
2023/07/25 08:03:44;;;;;;;6.57;0.68;;;;;;;;;;6272717;22;20431;-62
2023/07/25 08:06:10;;;;;;;3.65;0.52;;;;;;;;;;6221810;22;20020;-63
2023/07/25 08:08:36;;;;;;;3.20;0.85;;;;;;;;;;6272759;22;20022;-63
2023/07/25 08:11:02;;;;;;;3.05;0.82;;;19.40;99.90;;;;;;6271369;22;20016;-63
2023/07/25 08:13:28;;;;;;;3.65;0.60;;;;;;;;;;6272542;22;20012;-63
2023/07/25 08:15:54;;;;;;;5.43;0.68;;;19.60;99.90;;;;;;6273888;22;20073;-62
2023/07/25 08:18:20;;;;;;;3.75;0.75;;;;;;;;;;6275229;22;20448;-62
2023/07/25 08:20:46;;;;;;;3.45;1.23;;;19.90;99.90;;;;;;6222691;22;20086;-64
2023/07/25 08:23:12;;;;;;;3.80;0.70;;;20.10;99.90;;;;;;6273293;22;20051;-64
2023/07/25 08:25:39;;;;;;;4.75;0.70;;;19.90;99.90;;;;;;6248734;22;20012;-64
2023/07/25 08:28:05;;;;;;;6.40;0.95;;;19.90;99.90;;;;;;6275382;22;20019;-63
2023/07/25 08:30:31;;;;;;;4.50;0.70;;;;;;;;;;6275467;22;20015;-64
2023/07/25 08:32:57;;;;;;;2.58;0.70;;;19.30;99.90;;;;;;6276012;22;20387;-64
2023/07/25 08:35:23;;;;;;;6.53;1.15;;;19.20;99.90;;;;;;6248332;22;20016;-64
2023/07/25 08:37:49;;;;;;;2.90;0.55;;;19.50;99.90;;;;;;6248478;22;20474;-64
2023/07/25 08:40:15;;;;;;;4.35;0.82;;;19.50;99.90;;;;;;6247954;22;20015;-63
2023/07/25 08:42:43;;;;;;;1.00;0.32;;;;;;;;;;6248003;22;20149;-64
2023/07/25 08:45:09;;;;;;;3.28;1.00;;;;;;;;;;6222107;22;20051;-64
2023/07/25 08:47:39;;;;;;;6.53;0.93;;;;;;;;;;6248794;22;20020;-63
2023/07/25 08:50:09;;;;;;;3.80;0.90;;;;;;;;;;6222840;22;20027;-64
2023/07/25 08:52:36;;;;;;;3.72;0.52;;;;;;;;;;6248611;22;20015;-63
2023/07/25 08:55:02;;;;;;;2.97;0.68;;;;;;;;;;6221694;22;20123;-65
2023/07/25 08:57:29;;;;;;;3.95;0.73;;;20.10;99.90;;;;;;6273108;22;20016;-60
2023/07/25 08:59:56;;;;;;;5.10;0.82;;;;;;;;;;6222574;22;20062;-60
2023/07/25 09:02:22;;;;;;;4.53;0.80;;;20.00;99.90;;;;;;6274989;22;20114;-60
2023/07/25 09:04:48;;;;;;;4.18;0.90;;;;;;;;;;6221989;22;20021;-60
2023/07/25 09:07:14;;;;;;;5.15;0.70;;;;;;;;;;6222175;22;20011;-60
2023/07/25 09:09:40;;;;;;;2.63;0.70;;;;;;;;;;6220766;22;20016;-60
2023/07/25 09:12:07;;;;;;;2.30;0.70;;;20.70;99.90;;;;;;6272538;22;20027;-60
2023/07/25 09:14:36;;;;;;;4.00;1.08;;;21.00;99.90;;;;;;6221759;22;20015;-68
2023/07/25 09:17:04;;;;;;;5.57;1.95;;;20.80;99.90;;;;;;6222587;22;20107;-69
2023/07/25 09:19:30;;;;;;;6.03;0.88;;;21.10;99.90;;;;;;6246157;22;20058;-66
2023/07/25 09:21:59;;;;;;;4.80;1.13;;;21.10;99.90;;;;;;6222365;22;20019;-73
2023/07/25 09:24:36;;;;;;;3.45;0.70;;;21.00;99.90;;;;;;6275106;22;20019;-66
2023/07/25 09:27:02;;;;;;;3.35;0.65;;;;;;;;;;6247422;22;20022;-66
2023/07/25 09:29:28;;;;;;;5.32;0.65;;;20.90;99.90;;;;;;6248092;22;20022;-68
2023/07/25 09:31:54;;;;;;;4.57;0.82;;;20.90;99.90;;;;;;6275972;22;20051;-70
2023/07/25 09:34:23;;;;;;;4.30;0.90;;;20.40;99.90;;;;;;6275216;22;20016;-66
2023/07/25 09:36:50;;;;;;;8.30;1.15;;;;;;;;;;6223242;22;20059;-66
2023/07/25 09:39:16;;;;;;;1.80;0.50;;;;;;;;;;6273863;22;20016;-64
2023/07/25 09:41:43;;;;;;;4.00;0.70;;;;;;;;;;6274487;22;20460;-70
2023/07/25 09:44:09;;;;;;;3.50;0.85;;;20.10;99.90;;;;;;6247679;22;20053;-64
2023/07/25 09:46:35;;;;;;;8.38;1.15;;;;;;;;;;6275577;22;20116;-65
2023/07/25 09:49:02;;;;;;;13.65;1.38;;;;;;;;;;6247771;22;20023;-66
2023/07/25 09:51:28;;;;;;;2.40;0.63;;;;;;;;;;6274398;22;20384;-65
2023/07/25 09:53:54;;;;;;;3.28;0.50;;;20.10;99.90;;;;;;6275453;22;20077;-66
2023/07/25 09:56:24;;;;;;;6.68;0.80;;;19.90;99.90;;;;;;6273513;22;20011;-65
2023/07/25 09:58:51;;;;;;;2.28;1.08;;;20.10;99.90;;;;;;6273686;22;20081;-65
2023/07/25 10:01:18;;;;;;;4.07;0.70;;;20.10;99.90;;;;;;6222546;22;20045;-67
2023/07/25 10:03:45;;;;;;;4.22;0.60;;;20.40;99.90;;;;;;6275116;22;20026;-65
2023/07/25 10:06:12;;;;;;;5.15;0.70;;;20.60;99.90;;;;;;6274840;22;20019;-65
2023/07/25 10:08:39;;;;;;;3.97;0.70;;;20.80;99.90;;;;;;6245521;22;20019;-63
2023/07/25 10:11:05;;;;;;;3.20;0.70;;;21.00;99.90;;;;;;6274267;22;20012;-66
2023/07/25 10:13:36;;;;;;;4.63;0.80;;;21.00;99.90;;;;;;6275347;22;20436;-69
2023/07/25 10:16:03;;;;;;;1.92;0.60;;;21.10;99.90;;;;;;6274544;22;20432;-66
2023/07/25 10:18:34;;;;;;;6.85;1.50;;;21.10;99.90;;;;;;6247423;22;20321;-67
2023/07/25 10:21:00;;;;;;;1.85;0.40;;;;;;;;;;6274753;22;20012;-68
2023/07/25 10:23:36;;;;;;;3.97;0.60;;;20.80;99.90;;;;;;6274859;22;20142;-70
2023/07/25 10:26:13;;;;;;;2.63;0.60;;;21.10;99.90;;;;;;6274112;22;20126;-70
2023/07/25 10:28:39;;;;;;;4.00;0.73;;;;;;;;;;6248334;22;20015;-68
2023/07/25 10:31:08;;;;;;;2.75;0.60;;;21.50;99.90;;;;;;6274432;22;20022;-68
2023/07/25 10:33:38;;;;;;;1.70;0.68;;;21.20;99.90;;;;;;6246931;22;20019;-67
2023/07/25 10:36:05;;;;;;;2.75;0.60;;;21.20;99.90;;;;;;6274841;22;20047;-67
2023/07/25 10:38:34;;;;;;;2.13;0.50;;;21.30;99.90;;;;;;6272402;22;20020;-66
2023/07/25 10:41:09;;;;;;;4.72;0.80;;;21.10;99.90;;;;;;6245761;22;20055;-66
2023/07/25 10:43:52;;;;;;;1.80;0.90;;;21.60;99.90;;;;;;6246853;22;20020;-60
2023/07/25 10:46:20;;;;;;;2.67;0.43;;;21.80;99.90;;;;;;6246924;22;20019;-62
2023/07/25 10:48:46;;;;;;;3.83;0.70;;;22.00;99.90;;;;;;6221346;22;20015;-66
2023/07/25 10:51:15;;;;;;;8.57;0.80;;;21.50;99.90;;;;;;6273911;22;20042;-65
2023/07/25 10:53:41;;;;;;;3.50;0.70;;;;;;;;;;6246783;22;20023;-65
2023/07/25 10:56:07;;;;;;;5.55;0.52;;;;;;;;;;6247403;22;20098;-65
2023/07/25 10:58:38;;;;;;;6.53;0.60;;;21.70;99.90;;;;;;6274675;22;20019;-64
2023/07/25 11:01:04;;;;;;;4.68;0.80;;;;;;;;;;6276457;22;20020;-64
2023/07/25 11:03:35;;;;;;;7.70;0.80;;;21.70;99.90;;;;;;6275527;22;20020;-69
2023/07/25 11:06:27;;;;;;;5.40;1.42;;;21.40;99.90;;;;;;6275662;22;20019;-70
2023/07/25 11:08:56;;;;;;;6.90;0.73;;;;;;;;;;6274228;22;20102;-68
2023/07/25 11:11:22;;;;;;;3.83;0.77;;;;;;;;;;6275618;22;20091;-69
2023/07/25 11:13:48;;;;;;;2.65;0.80;;;;;;;;;;6276150;22;20508;-68
2023/07/25 11:16:21;;;;;;;2.25;0.60;;;20.40;99.90;;;;;;6275485;22;20467;-69
2023/07/25 11:18:50;;;;;;;3.53;0.65;;;;;;;;;;6276018;22;20317;-70
2023/07/25 11:21:17;;;;;;;3.85;1.42;;;;;;;;;;6275986;22;20023;-69
2023/07/25 11:23:43;;;;;;;2.33;0.70;;;20.80;99.90;;;;;;6248167;22;20026;-70
2023/07/25 11:26:09;;;;;;;7.53;0.75;;;20.80;99.90;;;;;;6248376;22;20028;-72
2023/07/25 11:28:41;;;;;;;2.88;0.90;;;20.30;99.90;;;;;;6276567;22;20069;-70
2023/07/25 11:31:07;;;;;;;5.22;0.70;;;;;;;;;;6275192;22;20077;-70
2023/07/25 11:33:41;;;;;;;5.32;0.63;;;;;;;;;;6276010;22;20436;-70
2023/07/25 11:36:07;;;;;;;4.72;0.52;;;;;;;;;;6275882;22;20016;-70
2023/07/25 11:38:37;;;;;;;3.60;0.80;;;;;;;;;;6276036;22;20023;-73
2023/07/25 11:41:04;;;;;;;2.65;0.70;;;20.50;99.90;;;;;;6276145;22;20340;-72
2023/07/25 11:43:33;;;;;;;3.45;0.70;;;;;;;;;;6276046;22;20441;-70
2023/07/25 11:45:59;;;;;;;4.85;0.75;;;;;;;;;;6276038;22;20098;-70
2023/07/25 11:48:25;;;;;;;5.75;1.08;;;;;;;;;;6249262;22;20106;-72
2023/07/25 11:50:52;;;;;;;6.05;0.85;;;;;;;;;;6276311;22;20471;-71
2023/07/25 11:53:20;;;;;;;3.15;0.70;;;19.70;99.90;;;;;;6275010;22;20514;-70
2023/07/25 11:55:46;;;;;;;3.33;1.10;;;;;;;;;;6275507;22;20022;-70
2023/07/25 11:58:19;;;;;;;2.78;0.90;;;;;;;;;;6248025;22;20023;-71
2023/07/25 12:00:51;;;;;;;3.55;0.60;;;20.10;99.90;;;;;;6249166;22;20344;-70
2023/07/25 12:03:20;;;;;;;6.72;1.02;;;;;;;;;;6274682;22;20015;-71
2023/07/25 12:05:54;;;;;;;3.40;0.77;;;;;;;;;;6248557;22;20022;-66
2023/07/25 12:08:37;;;;;;;3.67;0.65;;;;;;;;;;6274639;22;20571;-69
2023/07/25 12:11:13;;;;;;;2.28;0.50;;;;;;;;;;6275163;22;20455;-68
2023/07/25 12:13:43;;;;;;;4.90;0.60;;;;;;;;;;6274911;22;20019;-65
2023/07/25 12:16:22;;;;;;;;;;;18.10;99.90;;;;;;6275998;22;20099;-60
2023/07/25 12:18:52;;;;;;;2.10;0.70;;;;;;;;;;6248200;22;19938;-68
2023/07/25 12:21:31;;;;;;;1.60;0.68;;;;;;;;;;6274384;22;20890;-70
2023/07/25 12:23:58;;;;;;;3.25;0.57;;;;;;;;;;6274414;22;20062;-71
2023/07/25 12:26:25;;;;;;;2.90;0.85;;;;;;;;;;6247344;22;20066;-66
2023/07/25 12:28:51;;;;;;;3.83;0.70;;;;;;;;;;6246965;22;20016;-66
2023/07/25 12:31:18;;;;;;;2.53;0.90;;;;;;;;;;6248683;22;20773;-66
2023/07/25 12:33:44;;;;;;;1.67;0.65;;;;;;;;;;6275541;22;20027;-64
2023/07/25 12:36:11;;;;;;;1.75;0.52;;;;;;;;;;6221066;22;20020;-62
2023/07/25 12:38:37;;;;;;;3.00;0.80;;;;;;;;;;6247557;22;20024;-62
2023/07/25 12:41:08;;;;;;;4.47;0.90;;;;;;;;;;6274809;22;20054;-63
2023/07/25 12:43:34;;;;;;;4.43;0.93;;;;;;;;;;6248409;22;20016;-62
2023/07/25 12:46:01;;;;;;;3.53;0.90;;;;;;;;;;6247270;22;20302;-63
2023/07/25 12:48:27;;;;;;;2.22;0.98;;;;;;;;;;6222816;22;20441;-62
2023/07/25 12:50:53;;;;;;;2.85;0.73;;;;;;;;;;6248433;22;20445;-63
2023/07/25 12:53:19;;;;;;;2.25;0.80;;;;;;;;;;6275189;22;20115;-63
2023/07/25 12:55:45;;;;;;;2.35;1.00;;;;;;;;;;6247973;22;20318;-64
2023/07/25 12:58:11;;;;;;;5.50;1.13;;;;;;;;;;6222698;22;20110;-63
2023/07/25 13:00:38;;;;;;;4.82;0.80;;;;;;;;;;6248902;22;20337;-63
2023/07/25 13:03:04;;;;;;;5.10;1.20;;;;;;;;;;6248099;22;20016;-63
2023/07/25 13:05:30;;;;;;;4.13;1.15;;;;;;;;;;6221811;22;20031;-63
2023/07/25 13:07:58;;;;;;;3.80;1.95;;;;;;;;;;6221832;22;20023;-63
2023/07/25 13:10:24;;;;;;;6.53;1.13;;;;;;;;;;6222656;22;20027;-63
2023/07/25 13:12:50;;;;;;;4.90;0.73;;;;;;;;;;6275319;22;20379;-63
2023/07/25 13:15:16;;;;;;;6.75;0.90;;;;;;;;;;6275337;22;20095;-63
2023/07/25 13:17:42;;;;;;;2.17;0.65;;;;;;;;;;6274021;22;20095;-63
2023/07/25 13:20:08;;;;;;;3.17;0.88;;;;;;;;;;6274567;22;20045;-63
2023/07/25 13:22:35;;;;;;;1.75;0.68;;;;;;;;;;6274235;22;20023;-63
2023/07/25 13:25:02;;;;;;;1.35;0.52;;;;;;;;;;6247459;22;20015;-63
2023/07/25 13:27:29;;;;;;;3.17;0.60;;;19.00;99.90;;;;;;6247743;22;20021;-63
2023/07/25 13:29:56;;;;;;;4.45;0.60;;;;;;;;;;6222137;22;20026;-63
2023/07/25 13:32:22;;;;;;;1.15;0.55;;;;;;;;;;6221272;22;20069;-63
2023/07/25 13:34:51;;;;;;;1.80;0.52;;;;;;;;;;6274362;22;20023;-63
2023/07/25 13:37:17;;;;;;;1.33;0.60;;;;;;;;;;6246634;22;20039;-63
2023/07/25 13:39:43;;;;;;;4.10;0.77;;;;;;;;;;6275417;22;20020;-62
2023/07/25 13:42:09;;;;;;;2.08;0.80;;;;;;;;;;6246767;22;20032;-62
2023/07/25 13:44:35;;;;;;;4.47;0.93;;;;;;;;;;6247953;22;20024;-62
2023/07/25 13:47:02;;;;;;;4.47;1.10;;;;;;;;;;6246839;22;20023;-64
2023/07/25 13:49:29;;;;;;;2.42;0.63;;;;;;;;;;6222091;22;20057;-63
2023/07/25 13:51:55;;;;;;;2.35;0.50;;;;;;;;;;6275223;22;20020;-61
2023/07/25 13:54:21;;;;;;;3.67;0.60;;;19.80;99.90;;;;;;6274012;22;20066;-63
2023/07/25 13:56:47;;;;;;;5.70;0.85;;;;;;;;;;6221733;22;20051;-63
2023/07/25 13:59:13;;;;;;;3.40;1.10;;;;;;;;;;6274302;22;20019;-63
2023/07/25 14:01:39;;;;;;;1.83;0.82;;;;;;;;;;6274189;22;20047;-63
2023/07/25 14:04:06;;;;;;;3.78;1.02;;;19.70;99.90;;;;;;6245546;22;20042;-63
2023/07/25 14:06:32;;;;;;;5.07;0.90;;;;;;;;;;6222273;22;20015;-63
2023/07/25 14:08:59;;;;;;;3.20;0.95;;;;;;;;;;6247656;22;20085;-64
2023/07/25 14:11:25;;;;;;;4.15;1.10;;;;;;;;;;6274497;22;20023;-63
2023/07/25 14:13:51;;;;;;;1.88;0.82;;;;;;;;;;6274877;22;20024;-63
2023/07/25 14:16:17;;;;;;;3.88;0.90;;;;;;;;;;6221340;22;20065;-63
2023/07/25 14:18:43;;;;;;;2.38;0.80;;;;;;;;;;6274402;22;20016;-63